Fort Ashby, West Virginia
Current Conditions -  °F | °C
As of 3:11 AM on Thursday 27 Nov 2014 (Local Time) from KCBE Reporting Station
Overcast Overcast  
Wind Chill: 34°   Ceiling: 300
Heat Index: 34°   Visibility: 0.5mi
Dew Point: 34°   Wind: 3mph
Humidity: 100%   Direction: 130°SE
Pressure: 30.04"   Gusts: NA
Location:  39.5°N, 78.77°W
Report Text: KCBE 270811Z AUTO 13003KT 1/2SM BKN003 OVC026 01/01 A3004 RMK AO1
Loading
Personal Weather Stations






























Interactive Weather Map New forecast layout! Learn more

10-Day Weather Forecast

Advertisements
Track Severe Weather on mobile